sensor_id;sensor_type;location;lat;lon;timestamp;temperature;humidity
10443;DHT22;5269;51.146;16.986;2023-07-28T00:01:53;16.60;99.90
10443;DHT22;5269;51.146;16.986;2023-07-28T00:04:22;16.50;99.90
10443;DHT22;5269;51.146;16.986;2023-07-28T00:06:50;16.60;99.90
10443;DHT22;5269;51.146;16.986;2023-07-28T00:09:17;16.60;99.90
10443;DHT22;5269;51.146;16.986;2023-07-28T00:11:44;16.60;99.90
10443;DHT22;5269;51.146;16.986;2023-07-28T00:14:14;16.50;99.90
10443;DHT22;5269;51.146;16.986;2023-07-28T00:16:44;16.60;99.90
10443;DHT22;5269;51.146;16.986;2023-07-28T00:19:17;16.60;99.90
10443;DHT22;5269;51.146;16.986;2023-07-28T00:21:46;16.60;99.90
10443;DHT22;5269;51.146;16.986;2023-07-28T00:24:18;16.70;99.90
10443;DHT22;5269;51.146;16.986;2023-07-28T00:26:45;16.60;99.90
10443;DHT22;5269;51.146;16.986;2023-07-28T00:29:18;16.60;99.90
10443;DHT22;5269;51.146;16.986;2023-07-28T00:31:47;16.60;99.90
10443;DHT22;5269;51.146;16.986;2023-07-28T00:34:15;16.60;99.90
10443;DHT22;5269;51.146;16.986;2023-07-28T00:36:48;16.60;99.90
10443;DHT22;5269;51.146;16.986;2023-07-28T00:39:17;16.70;99.90
10443;DHT22;5269;51.146;16.986;2023-07-28T00:41:46;16.60;99.90
10443;DHT22;5269;51.146;16.986;2023-07-28T00:44:15;16.60;99.90
10443;DHT22;5269;51.146;16.986;2023-07-28T00:46:42;16.60;99.90
10443;DHT22;5269;51.146;16.986;2023-07-28T00:49:09;16.60;99.90
10443;DHT22;5269;51.146;16.986;2023-07-28T00:51:37;16.60;99.90
10443;DHT22;5269;51.146;16.986;2023-07-28T00:54:04;16.60;99.90
10443;DHT22;5269;51.146;16.986;2023-07-28T00:56:31;16.70;99.90
10443;DHT22;5269;51.146;16.986;2023-07-28T00:59:01;16.70;99.90
10443;DHT22;5269;51.146;16.986;2023-07-28T01:01:33;16.70;99.90
10443;DHT22;5269;51.146;16.986;2023-07-28T01:04:05;16.70;99.90
10443;DHT22;5269;51.146;16.986;2023-07-28T01:06:47;16.70;99.90
10443;DHT22;5269;51.146;16.986;2023-07-28T01:09:22;16.70;99.90
10443;DHT22;5269;51.146;16.986;2023-07-28T01:11:54;16.70;99.90
10443;DHT22;5269;51.146;16.986;2023-07-28T01:14:25;16.80;99.90
10443;DHT22;5269;51.146;16.986;2023-07-28T01:16:59;16.80;99.90
10443;DHT22;5269;51.146;16.986;2023-07-28T01:19:39;16.80;99.90
10443;DHT22;5269;51.146;16.986;2023-07-28T01:22:27;16.90;99.90
10443;DHT22;5269;51.146;16.986;2023-07-28T01:25:06;16.90;99.90
10443;DHT22;5269;51.146;16.986;2023-07-28T01:27:37;16.90;99.90
10443;DHT22;5269;51.146;16.986;2023-07-28T01:30:08;17.00;99.90
10443;DHT22;5269;51.146;16.986;2023-07-28T01:32:37;16.90;99.90
10443;DHT22;5269;51.146;16.986;2023-07-28T01:35:07;16.90;99.90
10443;DHT22;5269;51.146;16.986;2023-07-28T01:37:35;16.90;99.90
10443;DHT22;5269;51.146;16.986;2023-07-28T01:40:06;17.00;99.90
10443;DHT22;5269;51.146;16.986;2023-07-28T01:42:41;17.00;99.90
10443;DHT22;5269;51.146;16.986;2023-07-28T01:45:28;17.00;99.90
10443;DHT22;5269;51.146;16.986;2023-07-28T01:47:56;17.10;99.90
10443;DHT22;5269;51.146;16.986;2023-07-28T01:50:29;17.10;99.90
10443;DHT22;5269;51.146;16.986;2023-07-28T01:52:57;17.10;99.90
10443;DHT22;5269;51.146;16.986;2023-07-28T01:55:25;17.10;99.90
10443;DHT22;5269;51.146;16.986;2023-07-28T01:57:59;17.10;99.90
10443;DHT22;5269;51.146;16.986;2023-07-28T02:00:27;17.10;99.90
10443;DHT22;5269;51.146;16.986;2023-07-28T02:02:54;17.20;99.90
10443;DHT22;5269;51.146;16.986;2023-07-28T02:05:23;17.20;99.90
10443;DHT22;5269;51.146;16.986;2023-07-28T02:07:50;17.20;99.90
10443;DHT22;5269;51.146;16.986;2023-07-28T02:10:28;17.20;99.90
10443;DHT22;5269;51.146;16.986;2023-07-28T02:12:57;17.30;99.90
10443;DHT22;5269;51.146;16.986;2023-07-28T02:15:26;17.40;99.90
10443;DHT22;5269;51.146;16.986;2023-07-28T02:17:54;17.30;99.90
10443;DHT22;5269;51.146;16.986;2023-07-28T02:20:27;17.30;99.90
10443;DHT22;5269;51.146;16.986;2023-07-28T02:22:56;17.20;99.90
10443;DHT22;5269;51.146;16.986;2023-07-28T02:25:29;17.20;99.90
10443;DHT22;5269;51.146;16.986;2023-07-28T02:27:57;17.10;99.90
10443;DHT22;5269;51.146;16.986;2023-07-28T02:30:26;17.10;99.90
10443;DHT22;5269;51.146;16.986;2023-07-28T02:32:59;17.10;99.90
10443;DHT22;5269;51.146;16.986;2023-07-28T02:35:27;17.00;99.90
10443;DHT22;5269;51.146;16.986;2023-07-28T02:37:56;17.00;99.90
10443;DHT22;5269;51.146;16.986;2023-07-28T02:40:25;16.90;99.90
10443;DHT22;5269;51.146;16.986;2023-07-28T02:42:52;16.90;99.90
10443;DHT22;5269;51.146;16.986;2023-07-28T02:45:26;16.90;99.90
10443;DHT22;5269;51.146;16.986;2023-07-28T02:47:53;16.80;99.90
10443;DHT22;5269;51.146;16.986;2023-07-28T02:50:21;16.70;99.90
10443;DHT22;5269;51.146;16.986;2023-07-28T02:52:48;16.70;99.90
10443;DHT22;5269;51.146;16.986;2023-07-28T02:55:17;16.70;99.90
10443;DHT22;5269;51.146;16.986;2023-07-28T02:57:50;16.70;99.90
10443;DHT22;5269;51.146;16.986;2023-07-28T03:00:27;16.60;99.90
10443;DHT22;5269;51.146;16.986;2023-07-28T03:02:56;16.60;99.90
10443;DHT22;5269;51.146;16.986;2023-07-28T03:05:28;16.70;99.90
10443;DHT22;5269;51.146;16.986;2023-07-28T03:07:57;16.70;99.90
10443;DHT22;5269;51.146;16.986;2023-07-28T03:10:24;16.70;99.90
10443;DHT22;5269;51.146;16.986;2023-07-28T03:12:53;16.70;99.90
10443;DHT22;5269;51.146;16.986;2023-07-28T03:15:22;16.70;99.90
10443;DHT22;5269;51.146;16.986;2023-07-28T03:17:57;16.70;99.90
10443;DHT22;5269;51.146;16.986;2023-07-28T03:20:26;16.70;99.90
10443;DHT22;5269;51.146;16.986;2023-07-28T03:22:53;16.80;99.90
10443;DHT22;5269;51.146;16.986;2023-07-28T03:25:24;16.90;99.90
10443;DHT22;5269;51.146;16.986;2023-07-28T03:27:52;16.90;99.90
10443;DHT22;5269;51.146;16.986;2023-07-28T03:30:28;16.90;99.90
10443;DHT22;5269;51.146;16.986;2023-07-28T03:32:58;16.80;99.90
10443;DHT22;5269;51.146;16.986;2023-07-28T03:35:28;16.90;99.90
10443;DHT22;5269;51.146;16.986;2023-07-28T03:37:57;17.00;99.90
10443;DHT22;5269;51.146;16.986;2023-07-28T03:40:25;16.90;99.90
10443;DHT22;5269;51.146;16.986;2023-07-28T03:42:54;16.90;99.90
10443;DHT22;5269;51.146;16.986;2023-07-28T03:45:23;16.80;99.90
10443;DHT22;5269;51.146;16.986;2023-07-28T03:47:53;16.80;99.90
10443;DHT22;5269;51.146;16.986;2023-07-28T03:50:34;16.80;99.90
10443;DHT22;5269;51.146;16.986;2023-07-28T03:53:04;16.90;99.90
10443;DHT22;5269;51.146;16.986;2023-07-28T03:55:35;16.90;99.90
10443;DHT22;5269;51.146;16.986;2023-07-28T03:58:07;16.90;99.90
10443;DHT22;5269;51.146;16.986;2023-07-28T04:00:34;16.80;99.90
10443;DHT22;5269;51.146;16.986;2023-07-28T04:03:04;16.80;99.90
10443;DHT22;5269;51.146;16.986;2023-07-28T04:05:37;16.90;99.90
10443;DHT22;5269;51.146;16.986;2023-07-28T04:08:06;16.90;99.90
10443;DHT22;5269;51.146;16.986;2023-07-28T04:10:39;16.90;99.90
10443;DHT22;5269;51.146;16.986;2023-07-28T04:13:08;16.90;99.90
10443;DHT22;5269;51.146;16.986;2023-07-28T04:15:38;17.00;99.90
10443;DHT22;5269;51.146;16.986;2023-07-28T04:18:05;17.00;99.90
10443;DHT22;5269;51.146;16.986;2023-07-28T04:20:34;17.10;99.90
10443;DHT22;5269;51.146;16.986;2023-07-28T04:23:07;17.10;99.90
10443;DHT22;5269;51.146;16.986;2023-07-28T04:25:36;17.10;99.90
10443;DHT22;5269;51.146;16.986;2023-07-28T04:28:08;17.20;99.90
10443;DHT22;5269;51.146;16.986;2023-07-28T04:30:37;17.20;99.90
10443;DHT22;5269;51.146;16.986;2023-07-28T04:33:07;17.30;99.90
10443;DHT22;5269;51.146;16.986;2023-07-28T04:35:35;17.30;99.90
10443;DHT22;5269;51.146;16.986;2023-07-28T04:38:09;17.40;99.90
10443;DHT22;5269;51.146;16.986;2023-07-28T04:40:38;17.40;99.90
10443;DHT22;5269;51.146;16.986;2023-07-28T04:43:07;17.40;99.90
10443;DHT22;5269;51.146;16.986;2023-07-28T04:45:37;17.50;99.90
10443;DHT22;5269;51.146;16.986;2023-07-28T04:48:06;17.50;99.90
10443;DHT22;5269;51.146;16.986;2023-07-28T04:50:36;17.50;99.90
10443;DHT22;5269;51.146;16.986;2023-07-28T04:53:05;17.70;99.90
10443;DHT22;5269;51.146;16.986;2023-07-28T04:55:40;17.80;99.90
10443;DHT22;5269;51.146;16.986;2023-07-28T04:58:17;17.80;99.90
10443;DHT22;5269;51.146;16.986;2023-07-28T05:00:47;17.80;99.90
10443;DHT22;5269;51.146;16.986;2023-07-28T05:03:15;17.80;99.90
10443;DHT22;5269;51.146;16.986;2023-07-28T05:05:50;17.80;99.90
10443;DHT22;5269;51.146;16.986;2023-07-28T05:08:27;17.70;99.90
10443;DHT22;5269;51.146;16.986;2023-07-28T05:11:17;17.70;99.90
10443;DHT22;5269;51.146;16.986;2023-07-28T05:17:39;17.50;99.90
10443;DHT22;5269;51.146;16.986;2023-07-28T05:20:06;17.40;99.90
10443;DHT22;5269;51.146;16.986;2023-07-28T05:22:51;17.20;99.90
10443;DHT22;5269;51.146;16.986;2023-07-28T05:25:30;17.10;99.90
10443;DHT22;5269;51.146;16.986;2023-07-28T05:28:07;17.10;99.90
10443;DHT22;5269;51.146;16.986;2023-07-28T05:30:40;17.10;99.90
10443;DHT22;5269;51.146;16.986;2023-07-28T05:33:30;17.00;99.90
10443;DHT22;5269;51.146;16.986;2023-07-28T05:36:08;17.10;99.90
10443;DHT22;5269;51.146;16.986;2023-07-28T05:38:37;17.10;99.90
10443;DHT22;5269;51.146;16.986;2023-07-28T05:41:07;17.10;99.90
10443;DHT22;5269;51.146;16.986;2023-07-28T05:43:38;17.10;99.90
10443;DHT22;5269;51.146;16.986;2023-07-28T05:46:06;17.20;99.90
10443;DHT22;5269;51.146;16.986;2023-07-28T05:48:39;17.20;99.90
10443;DHT22;5269;51.146;16.986;2023-07-28T05:51:08;17.30;99.90
10443;DHT22;5269;51.146;16.986;2023-07-28T05:53:38;17.40;99.90
10443;DHT22;5269;51.146;16.986;2023-07-28T05:56:07;17.40;99.90
10443;DHT22;5269;51.146;16.986;2023-07-28T05:58:35;17.50;99.90
10443;DHT22;5269;51.146;16.986;2023-07-28T06:01:08;17.60;99.90
10443;DHT22;5269;51.146;16.986;2023-07-28T06:03:37;17.70;99.90
10443;DHT22;5269;51.146;16.986;2023-07-28T06:06:10;17.70;99.90
10443;DHT22;5269;51.146;16.986;2023-07-28T06:08:47;17.70;99.90
10443;DHT22;5269;51.146;16.986;2023-07-28T06:11:21;17.70;99.90
10443;DHT22;5269;51.146;16.986;2023-07-28T06:14:00;17.70;99.90
10443;DHT22;5269;51.146;16.986;2023-07-28T06:16:47;17.80;99.90
10443;DHT22;5269;51.146;16.986;2023-07-28T06:19:17;17.80;99.90
10443;DHT22;5269;51.146;16.986;2023-07-28T06:21:49;17.90;99.90
10443;DHT22;5269;51.146;16.986;2023-07-28T06:24:18;18.00;99.90
10443;DHT22;5269;51.146;16.986;2023-07-28T06:26:48;18.20;99.90
10443;DHT22;5269;51.146;16.986;2023-07-28T06:29:17;18.20;99.90
10443;DHT22;5269;51.146;16.986;2023-07-28T06:31:50;18.00;99.90
10443;DHT22;5269;51.146;16.986;2023-07-28T06:34:20;18.20;99.90
10443;DHT22;5269;51.146;16.986;2023-07-28T06:36:51;18.10;99.90
10443;DHT22;5269;51.146;16.986;2023-07-28T06:39:31;18.10;99.90
10443;DHT22;5269;51.146;16.986;2023-07-28T06:42:27;18.20;99.90
10443;DHT22;5269;51.146;16.986;2023-07-28T06:44:58;18.20;99.90
10443;DHT22;5269;51.146;16.986;2023-07-28T06:47:38;18.20;99.90
10443;DHT22;5269;51.146;16.986;2023-07-28T06:50:07;18.20;99.90
10443;DHT22;5269;51.146;16.986;2023-07-28T06:52:38;18.30;99.90
10443;DHT22;5269;51.146;16.986;2023-07-28T06:55:08;18.30;99.90
10443;DHT22;5269;51.146;16.986;2023-07-28T06:57:37;18.50;99.90
10443;DHT22;5269;51.146;16.986;2023-07-28T07:00:07;18.50;99.90
10443;DHT22;5269;51.146;16.986;2023-07-28T07:02:37;18.60;99.90
10443;DHT22;5269;51.146;16.986;2023-07-28T07:05:07;18.60;99.90
10443;DHT22;5269;51.146;16.986;2023-07-28T07:07:38;18.70;99.90
10443;DHT22;5269;51.146;16.986;2023-07-28T07:10:08;18.90;99.90
10443;DHT22;5269;51.146;16.986;2023-07-28T07:12:35;19.00;99.90
10443;DHT22;5269;51.146;16.986;2023-07-28T07:15:05;19.00;99.90
10443;DHT22;5269;51.146;16.986;2023-07-28T07:17:34;19.20;99.90
10443;DHT22;5269;51.146;16.986;2023-07-28T07:20:08;19.40;99.90
10443;DHT22;5269;51.146;16.986;2023-07-28T07:22:39;19.40;99.90
10443;DHT22;5269;51.146;16.986;2023-07-28T07:25:09;19.60;99.90
10443;DHT22;5269;51.146;16.986;2023-07-28T07:27:37;19.60;99.90
10443;DHT22;5269;51.146;16.986;2023-07-28T07:30:09;19.60;99.90
10443;DHT22;5269;51.146;16.986;2023-07-28T07:32:36;19.60;99.90
10443;DHT22;5269;51.146;16.986;2023-07-28T07:35:11;19.60;99.90
10443;DHT22;5269;51.146;16.986;2023-07-28T07:37:48;19.60;99.90
10443;DHT22;5269;51.146;16.986;2023-07-28T07:40:17;19.70;99.90
10443;DHT22;5269;51.146;16.986;2023-07-28T07:42:48;19.70;99.90
10443;DHT22;5269;51.146;16.986;2023-07-28T07:45:19;19.70;99.90
10443;DHT22;5269;51.146;16.986;2023-07-28T07:47:48;19.70;99.90
10443;DHT22;5269;51.146;16.986;2023-07-28T07:50:21;19.70;99.90
10443;DHT22;5269;51.146;16.986;2023-07-28T07:52:50;19.60;99.90
10443;DHT22;5269;51.146;16.986;2023-07-28T07:55:38;19.70;99.90
10443;DHT22;5269;51.146;16.986;2023-07-28T07:58:08;19.60;99.90
10443;DHT22;5269;51.146;16.986;2023-07-28T08:00:39;19.70;99.90
10443;DHT22;5269;51.146;16.986;2023-07-28T08:03:08;19.60;99.90
10443;DHT22;5269;51.146;16.986;2023-07-28T08:05:37;19.60;99.90
10443;DHT22;5269;51.146;16.986;2023-07-28T08:08:04;19.70;99.90
10443;DHT22;5269;51.146;16.986;2023-07-28T08:10:48;19.70;99.90
10443;DHT22;5269;51.146;16.986;2023-07-28T08:13:18;19.70;99.90
10443;DHT22;5269;51.146;16.986;2023-07-28T08:15:49;19.70;99.90
10443;DHT22;5269;51.146;16.986;2023-07-28T08:18:19;19.70;99.90
10443;DHT22;5269;51.146;16.986;2023-07-28T08:20:45;19.80;99.90
10443;DHT22;5269;51.146;16.986;2023-07-28T08:23:13;19.70;99.90
10443;DHT22;5269;51.146;16.986;2023-07-28T08:25:42;19.70;99.90
10443;DHT22;5269;51.146;16.986;2023-07-28T08:28:10;19.50;99.90
10443;DHT22;5269;51.146;16.986;2023-07-28T08:30:39;19.50;99.90
10443;DHT22;5269;51.146;16.986;2023-07-28T08:33:08;19.40;99.90
10443;DHT22;5269;51.146;16.986;2023-07-28T08:35:38;19.50;99.90
10443;DHT22;5269;51.146;16.986;2023-07-28T08:38:11;19.60;99.90
10443;DHT22;5269;51.146;16.986;2023-07-28T08:40:48;19.60;99.90
10443;DHT22;5269;51.146;16.986;2023-07-28T08:43:21;19.30;99.90
10443;DHT22;5269;51.146;16.986;2023-07-28T08:45:48;19.30;99.90
10443;DHT22;5269;51.146;16.986;2023-07-28T08:48:19;19.30;99.90
10443;DHT22;5269;51.146;16.986;2023-07-28T08:50:48;19.20;99.90
10443;DHT22;5269;51.146;16.986;2023-07-28T08:53:19;19.30;99.90
10443;DHT22;5269;51.146;16.986;2023-07-28T08:55:48;19.40;99.90
10443;DHT22;5269;51.146;16.986;2023-07-28T08:58:18;19.60;99.90
10443;DHT22;5269;51.146;16.986;2023-07-28T09:00:49;19.70;99.90
10443;DHT22;5269;51.146;16.986;2023-07-28T09:03:18;19.70;99.90
10443;DHT22;5269;51.146;16.986;2023-07-28T09:05:53;19.80;99.90
10443;DHT22;5269;51.146;16.986;2023-07-28T09:08:30;19.90;99.90
10443;DHT22;5269;51.146;16.986;2023-07-28T09:11:02;20.10;99.90
10443;DHT22;5269;51.146;16.986;2023-07-28T09:13:36;20.20;99.90
10443;DHT22;5269;51.146;16.986;2023-07-28T09:16:05;20.50;99.90
10443;DHT22;5269;51.146;16.986;2023-07-28T09:18:39;20.40;99.90
10443;DHT22;5269;51.146;16.986;2023-07-28T09:21:18;20.30;99.90
10443;DHT22;5269;51.146;16.986;2023-07-28T09:23:48;20.40;99.90
10443;DHT22;5269;51.146;16.986;2023-07-28T09:26:18;20.40;99.90
10443;DHT22;5269;51.146;16.986;2023-07-28T09:28:47;20.50;99.90
10443;DHT22;5269;51.146;16.986;2023-07-28T09:31:29;20.60;99.90
10443;DHT22;5269;51.146;16.986;2023-07-28T09:33:57;20.60;99.90
10443;DHT22;5269;51.146;16.986;2023-07-28T09:36:24;20.80;99.90
10443;DHT22;5269;51.146;16.986;2023-07-28T09:38:59;21.10;99.90
10443;DHT22;5269;51.146;16.986;2023-07-28T09:41:29;21.00;99.90
10443;DHT22;5269;51.146;16.986;2023-07-28T09:43:58;21.30;99.90
10443;DHT22;5269;51.146;16.986;2023-07-28T09:46:28;21.40;99.90
10443;DHT22;5269;51.146;16.986;2023-07-28T09:49:03;21.70;99.90
10443;DHT22;5269;51.146;16.986;2023-07-28T09:51:40;21.60;99.90
10443;DHT22;5269;51.146;16.986;2023-07-28T09:54:18;21.50;99.90
10443;DHT22;5269;51.146;16.986;2023-07-28T09:56:49;21.40;99.90
10443;DHT22;5269;51.146;16.986;2023-07-28T09:59:17;21.30;99.90
10443;DHT22;5269;51.146;16.986;2023-07-28T10:01:44;21.20;99.90
10443;DHT22;5269;51.146;16.986;2023-07-28T10:04:18;21.20;99.90
10443;DHT22;5269;51.146;16.986;2023-07-28T10:06:48;21.30;99.90
10443;DHT22;5269;51.146;16.986;2023-07-28T10:09:17;21.30;99.90
10443;DHT22;5269;51.146;16.986;2023-07-28T10:11:48;21.40;99.90
10443;DHT22;5269;51.146;16.986;2023-07-28T10:14:27;21.50;99.90
10443;DHT22;5269;51.146;16.986;2023-07-28T10:16:58;21.50;99.90
10443;DHT22;5269;51.146;16.986;2023-07-28T10:19:39;21.60;99.90
10443;DHT22;5269;51.146;16.986;2023-07-28T10:22:11;21.60;99.90
10443;DHT22;5269;51.146;16.986;2023-07-28T10:25:01;21.70;99.90
10443;DHT22;5269;51.146;16.986;2023-07-28T10:27:43;21.70;99.90
10443;DHT22;5269;51.146;16.986;2023-07-28T10:30:28;21.80;99.90
10443;DHT22;5269;51.146;16.986;2023-07-28T10:32:58;22.00;99.90
10443;DHT22;5269;51.146;16.986;2023-07-28T10:35:30;22.10;99.90
10443;DHT22;5269;51.146;16.986;2023-07-28T10:37:58;22.20;99.90
10443;DHT22;5269;51.146;16.986;2023-07-28T10:40:50;22.20;99.90
10443;DHT22;5269;51.146;16.986;2023-07-28T10:43:17;22.50;99.90
10443;DHT22;5269;51.146;16.986;2023-07-28T10:45:59;22.70;99.90
10443;DHT22;5269;51.146;16.986;2023-07-28T10:48:28;22.90;1.00
10443;DHT22;5269;51.146;16.986;2023-07-28T10:50:59;23.20;99.50
10443;DHT22;5269;51.146;16.986;2023-07-28T10:53:28;23.30;1.00
10443;DHT22;5269;51.146;16.986;2023-07-28T10:56:08;23.50;99.90
10443;DHT22;5269;51.146;16.986;2023-07-28T10:58:38;23.70;1.00
10443;DHT22;5269;51.146;16.986;2023-07-28T11:01:11;23.70;99.90
10443;DHT22;5269;51.146;16.986;2023-07-28T11:03:40;23.80;1.00
10443;DHT22;5269;51.146;16.986;2023-07-28T11:06:08;23.70;1.00
10443;DHT22;5269;51.146;16.986;2023-07-28T11:08:38;23.90;1.00
10443;DHT22;5269;51.146;16.986;2023-07-28T11:11:06;23.70;1.00
10443;DHT22;5269;51.146;16.986;2023-07-28T11:13:35;23.70;99.90
10443;DHT22;5269;51.146;16.986;2023-07-28T11:16:11;23.80;99.90
10443;DHT22;5269;51.146;16.986;2023-07-28T11:18:38;23.60;67.10
10443;DHT22;5269;51.146;16.986;2023-07-28T11:21:09;23.60;99.90
10443;DHT22;5269;51.146;16.986;2023-07-28T11:23:52;23.60;79.10
10443;DHT22;5269;51.146;16.986;2023-07-28T11:26:29;23.70;99.90
10443;DHT22;5269;51.146;16.986;2023-07-28T11:28:59;23.90;1.00
10443;DHT22;5269;51.146;16.986;2023-07-28T11:31:28;24.10;1.00
10443;DHT22;5269;51.146;16.986;2023-07-28T11:33:55;24.10;97.10
10443;DHT22;5269;51.146;16.986;2023-07-28T11:36:30;24.00;1.00
10443;DHT22;5269;51.146;16.986;2023-07-28T11:38:59;23.90;1.00
10443;DHT22;5269;51.146;16.986;2023-07-28T11:41:28;24.00;1.00
10443;DHT22;5269;51.146;16.986;2023-07-28T11:43:57;24.00;1.00
10443;DHT22;5269;51.146;16.986;2023-07-28T11:46:37;23.90;1.00
10443;DHT22;5269;51.146;16.986;2023-07-28T11:49:09;24.00;1.00
10443;DHT22;5269;51.146;16.986;2023-07-28T11:51:39;23.90;1.00
10443;DHT22;5269;51.146;16.986;2023-07-28T11:54:10;24.00;1.00
10443;DHT22;5269;51.146;16.986;2023-07-28T11:56:37;24.30;99.90
10443;DHT22;5269;51.146;16.986;2023-07-28T11:59:04;24.50;99.90
10443;DHT22;5269;51.146;16.986;2023-07-28T12:01:31;24.60;99.90
10443;DHT22;5269;51.146;16.986;2023-07-28T12:04:30;24.70;99.90
10443;DHT22;5269;51.146;16.986;2023-07-28T12:07:09;24.70;99.90
10443;DHT22;5269;51.146;16.986;2023-07-28T12:09:50;24.60;99.90
10443;DHT22;5269;51.146;16.986;2023-07-28T12:12:19;24.50;99.90
10443;DHT22;5269;51.146;16.986;2023-07-28T12:14:49;24.50;99.90
10443;DHT22;5269;51.146;16.986;2023-07-28T12:17:17;24.40;99.90
10443;DHT22;5269;51.146;16.986;2023-07-28T12:19:57;24.30;99.90
10443;DHT22;5269;51.146;16.986;2023-07-28T12:22:30;24.30;99.90
10443;DHT22;5269;51.146;16.986;2023-07-28T12:24:58;24.20;99.90
10443;DHT22;5269;51.146;16.986;2023-07-28T12:27:31;24.20;99.90
10443;DHT22;5269;51.146;16.986;2023-07-28T12:30:08;24.10;99.90
10443;DHT22;5269;51.146;16.986;2023-07-28T12:32:37;24.20;99.90
10443;DHT22;5269;51.146;16.986;2023-07-28T12:35:20;24.20;99.90
10443;DHT22;5269;51.146;16.986;2023-07-28T12:37:50;24.50;99.90
10443;DHT22;5269;51.146;16.986;2023-07-28T12:40:18;24.40;99.90
10443;DHT22;5269;51.146;16.986;2023-07-28T12:42:51;24.80;99.90
10443;DHT22;5269;51.146;16.986;2023-07-28T12:45:30;25.00;99.90
10443;DHT22;5269;51.146;16.986;2023-07-28T12:48:00;25.20;69.60
10443;DHT22;5269;51.146;16.986;2023-07-28T12:50:30;25.20;1.00
10443;DHT22;5269;51.146;16.986;2023-07-28T12:52:58;25.30;1.00
10443;DHT22;5269;51.146;16.986;2023-07-28T12:55:29;25.50;1.00
10443;DHT22;5269;51.146;16.986;2023-07-28T12:58:00;25.50;1.00
10443;DHT22;5269;51.146;16.986;2023-07-28T13:00:30;25.20;1.00
10443;DHT22;5269;51.146;16.986;2023-07-28T13:02:58;24.80;1.00
10443;DHT22;5269;51.146;16.986;2023-07-28T13:05:30;24.80;1.00
10443;DHT22;5269;51.146;16.986;2023-07-28T13:07:59;24.60;1.00
10443;DHT22;5269;51.146;16.986;2023-07-28T13:10:31;24.60;56.30
10443;DHT22;5269;51.146;16.986;2023-07-28T13:13:09;24.90;1.00
10443;DHT22;5269;51.146;16.986;2023-07-28T13:15:38;25.10;1.00
10443;DHT22;5269;51.146;16.986;2023-07-28T13:18:07;25.20;1.00
10443;DHT22;5269;51.146;16.986;2023-07-28T13:20:40;25.30;1.00
10443;DHT22;5269;51.146;16.986;2023-07-28T13:23:08;25.40;1.00
10443;DHT22;5269;51.146;16.986;2023-07-28T13:25:38;25.30;1.00
10443;DHT22;5269;51.146;16.986;2023-07-28T13:28:08;25.30;1.00
10443;DHT22;5269;51.146;16.986;2023-07-28T13:30:43;25.40;1.00
10443;DHT22;5269;51.146;16.986;2023-07-28T13:33:30;25.60;1.00
10443;DHT22;5269;51.146;16.986;2023-07-28T13:35:59;25.80;1.00
10443;DHT22;5269;51.146;16.986;2023-07-28T13:38:30;25.90;1.00
10443;DHT22;5269;51.146;16.986;2023-07-28T13:40:59;25.90;1.00
10443;DHT22;5269;51.146;16.986;2023-07-28T13:43:28;25.80;1.00
10443;DHT22;5269;51.146;16.986;2023-07-28T13:45:57;25.70;1.00
10443;DHT22;5269;51.146;16.986;2023-07-28T13:48:29;25.70;1.00
10443;DHT22;5269;51.146;16.986;2023-07-28T13:50:59;25.70;1.00
10443;DHT22;5269;51.146;16.986;2023-07-28T13:53:30;25.90;1.00
10443;DHT22;5269;51.146;16.986;2023-07-28T13:56:19;26.00;1.00
10443;DHT22;5269;51.146;16.986;2023-07-28T13:58:49;25.80;1.00
10443;DHT22;5269;51.146;16.986;2023-07-28T14:01:21;25.80;1.00
10443;DHT22;5269;51.146;16.986;2023-07-28T14:04:00;26.10;1.00
10443;DHT22;5269;51.146;16.986;2023-07-28T14:06:29;26.20;1.00
10443;DHT22;5269;51.146;16.986;2023-07-28T14:09:00;26.20;1.00
10443;DHT22;5269;51.146;16.986;2023-07-28T14:11:29;26.10;1.00
10443;DHT22;5269;51.146;16.986;2023-07-28T14:13:58;26.30;1.00
10443;DHT22;5269;51.146;16.986;2023-07-28T14:16:28;26.60;1.00
10443;DHT22;5269;51.146;16.986;2023-07-28T14:19:00;26.50;1.00
10443;DHT22;5269;51.146;16.986;2023-07-28T14:21:42;26.60;1.00
10443;DHT22;5269;51.146;16.986;2023-07-28T14:24:20;26.80;1.00
10443;DHT22;5269;51.146;16.986;2023-07-28T14:26:49;26.70;1.00
10443;DHT22;5269;51.146;16.986;2023-07-28T14:29:19;26.40;1.00
10443;DHT22;5269;51.146;16.986;2023-07-28T14:31:50;26.30;1.00
10443;DHT22;5269;51.146;16.986;2023-07-28T14:34:20;26.40;1.00
10443;DHT22;5269;51.146;16.986;2023-07-28T14:36:50;26.70;1.00
10443;DHT22;5269;51.146;16.986;2023-07-28T14:39:21;26.70;1.00
10443;DHT22;5269;51.146;16.986;2023-07-28T14:42:02;26.70;1.00
10443;DHT22;5269;51.146;16.986;2023-07-28T14:44:38;26.60;1.00
10443;DHT22;5269;51.146;16.986;2023-07-28T14:47:18;26.80;1.00
10443;DHT22;5269;51.146;16.986;2023-07-28T14:49:51;26.80;1.00
10443;DHT22;5269;51.146;16.986;2023-07-28T14:52:18;26.90;1.00
10443;DHT22;5269;51.146;16.986;2023-07-28T14:54:49;27.00;1.00
10443;DHT22;5269;51.146;16.986;2023-07-28T14:57:21;26.90;1.00
10443;DHT22;5269;51.146;16.986;2023-07-28T15:00:00;27.00;1.00
10443;DHT22;5269;51.146;16.986;2023-07-28T15:02:29;27.10;1.00
10443;DHT22;5269;51.146;16.986;2023-07-28T15:04:59;27.10;1.00
10443;DHT22;5269;51.146;16.986;2023-07-28T15:07:26;26.80;1.00
10443;DHT22;5269;51.146;16.986;2023-07-28T15:10:02;26.60;1.00
10443;DHT22;5269;51.146;16.986;2023-07-28T15:12:50;26.80;1.00
10443;DHT22;5269;51.146;16.986;2023-07-28T15:15:19;27.00;1.00
10443;DHT22;5269;51.146;16.986;2023-07-28T15:17:49;27.20;1.00
10443;DHT22;5269;51.146;16.986;2023-07-28T15:20:16;27.40;1.00
10443;DHT22;5269;51.146;16.986;2023-07-28T15:22:48;27.50;1.00
10443;DHT22;5269;51.146;16.986;2023-07-28T15:25:19;27.50;1.00
10443;DHT22;5269;51.146;16.986;2023-07-28T15:27:49;27.60;1.00
10443;DHT22;5269;51.146;16.986;2023-07-28T15:30:22;27.70;1.00
10443;DHT22;5269;51.146;16.986;2023-07-28T15:32:59;27.40;1.00
10443;DHT22;5269;51.146;16.986;2023-07-28T15:35:28;27.40;1.00
10443;DHT22;5269;51.146;16.986;2023-07-28T15:38:00;27.40;1.00
10443;DHT22;5269;51.146;16.986;2023-07-28T15:40:31;27.40;1.00
10443;DHT22;5269;51.146;16.986;2023-07-28T15:42:58;27.50;1.00
10443;DHT22;5269;51.146;16.986;2023-07-28T15:45:31;27.60;1.00
10443;DHT22;5269;51.146;16.986;2023-07-28T15:48:21;27.60;1.00
10443;DHT22;5269;51.146;16.986;2023-07-28T15:50:50;27.50;1.00
10443;DHT22;5269;51.146;16.986;2023-07-28T15:53:18;27.30;1.00
10443;DHT22;5269;51.146;16.986;2023-07-28T15:55:49;27.50;1.00
10443;DHT22;5269;51.146;16.986;2023-07-28T15:58:22;27.90;1.00
10443;DHT22;5269;51.146;16.986;2023-07-28T16:00:54;27.80;1.00
10443;DHT22;5269;51.146;16.986;2023-07-28T16:03:28;27.70;1.00
10443;DHT22;5269;51.146;16.986;2023-07-28T16:06:01;27.50;1.00
10443;DHT22;5269;51.146;16.986;2023-07-28T16:08:28;27.70;1.00